createdAt,value
2018-06-16T00:01:49.401Z,61.56
2018-06-16T00:04:18.088Z,60.65
2018-06-16T00:06:46.748Z,60.52
2018-06-16T00:09:15.455Z,61.17
2018-06-16T00:11:44.136Z,62.38
2018-06-16T00:14:12.833Z,61.39
2018-06-16T00:16:41.680Z,61.43
2018-06-16T00:19:10.341Z,61.50
2018-06-16T00:21:38.997Z,61.97
2018-06-16T00:24:07.693Z,61.86
2018-06-16T00:26:36.377Z,62.98
2018-06-16T00:29:05.078Z,63.17
2018-06-16T00:34:20.425Z,62.34
2018-06-16T00:36:49.096Z,62.68
2018-06-16T00:39:17.835Z,63.35
2018-06-16T00:41:46.636Z,63.88
2018-06-16T00:44:15.406Z,64.71
2018-06-16T00:46:44.060Z,65.02
2018-06-16T00:49:12.784Z,65.03
2018-06-16T00:51:41.632Z,65.58
2018-06-16T00:54:10.368Z,65.09
2018-06-16T00:56:39.433Z,65.09
2018-06-16T00:59:08.264Z,65.95
2018-06-16T01:01:36.958Z,65.23
2018-06-16T01:04:05.786Z,65.44
2018-06-16T01:06:34.639Z,65.22
2018-06-16T01:09:03.451Z,65.59
2018-06-16T01:11:32.261Z,65.24
2018-06-16T01:14:00.902Z,65.74
2018-06-16T01:16:29.654Z,64.91
2018-06-16T01:18:58.411Z,66.14
2018-06-16T01:21:27.115Z,64.95
2018-06-16T01:23:55.820Z,64.71
2018-06-16T01:26:24.623Z,64.79
2018-06-16T01:28:53.379Z,64.66
2018-06-16T01:31:22.227Z,64.84
2018-06-16T01:33:50.932Z,65.96
2018-06-16T01:36:19.644Z,65.25
2018-06-16T01:38:48.396Z,65.16
2018-06-16T01:41:17.103Z,66.22
2018-06-16T01:43:45.863Z,64.77
2018-06-16T01:46:14.654Z,65.49
2018-06-16T01:48:43.373Z,65.70
2018-06-16T01:51:12.105Z,66.35
2018-06-16T01:53:40.840Z,65.84
2018-06-16T01:56:09.599Z,65.69
2018-06-16T01:58:38.454Z,65.64
2018-06-16T02:01:07.336Z,65.92
2018-06-16T02:03:36.243Z,65.89
2018-06-16T02:06:05.061Z,65.97
2018-06-16T02:08:33.844Z,66.44
2018-06-16T02:11:02.715Z,66.98
2018-06-16T02:13:31.431Z,66.59
2018-06-16T02:16:00.193Z,67.29
2018-06-16T02:18:28.965Z,67.14
2018-06-16T02:20:57.590Z,66.47
2018-06-16T02:23:26.458Z,67.31
2018-06-16T02:25:55.236Z,67.37
2018-06-16T02:28:23.942Z,67.18
2018-06-16T02:30:52.720Z,66.91
2018-06-16T02:33:21.367Z,67.69
2018-06-16T02:35:50.172Z,67.98
2018-06-16T02:38:18.971Z,67.03
2018-06-16T02:40:48.330Z,67.14
2018-06-16T02:43:17.030Z,67.23
2018-06-16T02:45:45.858Z,67.81
2018-06-16T02:48:14.605Z,68.29
2018-06-16T02:50:43.304Z,67.75
2018-06-16T02:53:12.023Z,67.36
2018-06-16T02:55:40.902Z,67.53
2018-06-16T02:58:09.694Z,67.44
2018-06-16T03:00:38.407Z,67.93
2018-06-16T03:03:07.164Z,68.69
2018-06-16T03:05:35.908Z,69.18
2018-06-16T03:08:04.835Z,68.20
2018-06-16T03:10:33.594Z,67.64
2018-06-16T03:13:02.363Z,69.25
2018-06-16T03:15:31.209Z,68.03
2018-06-16T03:18:00.024Z,68.55
2018-06-16T03:20:28.849Z,68.38
2018-06-16T03:22:57.542Z,68.26
2018-06-16T03:25:26.316Z,69.28
2018-06-16T03:27:55.044Z,67.86
2018-06-16T03:30:23.786Z,67.81
2018-06-16T03:32:52.583Z,68.15
2018-06-16T03:35:21.386Z,68.49
2018-06-16T03:37:50.306Z,68.54
2018-06-16T03:40:19.121Z,67.52
2018-06-16T03:42:47.902Z,66.98
2018-06-16T03:45:16.776Z,67.21
2018-06-16T03:47:45.458Z,67.22
2018-06-16T03:50:14.190Z,67.94
2018-06-16T03:52:43.009Z,67.67
2018-06-16T03:55:11.675Z,67.59
2018-06-16T03:57:40.501Z,67.54
2018-06-16T04:00:09.365Z,67.39
2018-06-16T04:02:38.101Z,66.81
2018-06-16T04:05:06.745Z,66.62
2018-06-16T04:07:35.456Z,66.53
2018-06-16T04:10:04.298Z,67.28
2018-06-16T04:12:32.925Z,66.52
2018-06-16T04:15:01.751Z,66.77
2018-06-16T04:17:30.405Z,66.74
2018-06-16T04:19:59.423Z,66.24
2018-06-16T04:22:28.108Z,66.48
2018-06-16T04:24:56.818Z,65.71
2018-06-16T04:27:25.578Z,65.30
2018-06-16T04:29:54.328Z,65.10
2018-06-16T04:32:23.003Z,64.85
2018-06-16T04:34:51.684Z,64.56
2018-06-16T04:37:20.386Z,64.62
2018-06-16T04:39:49.113Z,64.42
2018-06-16T04:42:17.825Z,64.12
2018-06-16T04:44:46.558Z,64.19
2018-06-16T04:47:15.462Z,64.19
2018-06-16T04:49:44.199Z,64.54
2018-06-16T04:52:12.926Z,63.18
2018-06-16T04:54:41.624Z,64.00
2018-06-16T04:57:10.281Z,64.46
2018-06-16T04:59:38.993Z,62.53
2018-06-16T05:02:07.822Z,62.23
2018-06-16T05:04:36.582Z,62.57
2018-06-16T05:07:05.388Z,62.22
2018-06-16T05:09:34.108Z,60.97
2018-06-16T05:12:02.939Z,60.98
2018-06-16T05:14:31.928Z,60.46
2018-06-16T05:17:00.899Z,59.93
2018-06-16T05:19:29.623Z,59.92
2018-06-16T05:21:58.407Z,62.38
2018-06-16T05:24:27.398Z,59.61
2018-06-16T05:26:56.514Z,57.52
2018-06-16T05:29:25.269Z,56.29
2018-06-16T05:31:53.958Z,55.65
2018-06-16T05:34:22.999Z,55.59
2018-06-16T05:36:51.840Z,55.62
2018-06-16T05:48:07.908Z,56.10
2018-06-16T05:50:36.647Z,55.93
2018-06-16T05:53:05.443Z,55.16
2018-06-16T05:55:34.313Z,55.18
2018-06-16T05:58:03.379Z,54.59
2018-06-16T06:00:32.453Z,53.00
2018-06-16T06:03:01.287Z,53.72
2018-06-16T06:05:30.295Z,54.74
2018-06-16T06:07:59.364Z,53.55
2018-06-16T06:10:28.281Z,53.42
2018-06-16T06:12:57.100Z,52.75
2018-06-16T06:15:25.832Z,52.18
2018-06-16T06:17:54.775Z,52.96
2018-06-16T06:20:23.535Z,51.21
2018-06-16T06:22:52.355Z,50.77
2018-06-16T06:25:21.152Z,49.85
2018-06-16T06:27:49.918Z,50.63
2018-06-16T06:30:18.688Z,47.90
2018-06-16T06:32:47.491Z,46.56
2018-06-16T06:35:16.404Z,47.75
2018-06-16T06:37:45.190Z,47.83
2018-06-16T06:40:14.103Z,47.19
2018-06-16T06:42:44.957Z,46.76
2018-06-16T06:45:13.801Z,45.50
2018-06-16T06:47:42.757Z,45.88
2018-06-16T06:50:11.816Z,46.92
2018-06-16T06:52:40.596Z,46.01
2018-06-16T06:55:09.293Z,45.97
2018-06-16T06:57:38.330Z,44.40
2018-06-16T07:00:07.282Z,44.74
2018-06-16T07:02:35.972Z,43.31
2018-06-16T07:05:04.593Z,44.24
2018-06-16T07:07:33.362Z,44.40
2018-06-16T07:10:02.053Z,43.69
2018-06-16T07:12:30.808Z,43.33
2018-06-16T07:14:59.760Z,42.58
2018-06-16T07:17:28.684Z,43.38
2018-06-16T07:19:57.327Z,42.48
2018-06-16T07:22:26.070Z,40.88
2018-06-16T07:24:54.920Z,42.36
2018-06-16T07:27:23.819Z,40.32
2018-06-16T07:29:52.621Z,40.39
2018-06-16T07:32:21.453Z,39.99
2018-06-16T07:34:50.425Z,40.58
2018-06-16T07:37:19.254Z,41.01
2018-06-16T07:39:48.016Z,39.98
2018-06-16T07:42:16.849Z,36.89
2018-06-16T07:44:45.559Z,37.02
2018-06-16T07:47:14.491Z,38.50
2018-06-16T07:49:43.170Z,36.35
2018-06-16T07:52:11.905Z,39.08
2018-06-16T07:54:40.593Z,37.31
2018-06-16T07:57:09.694Z,38.83
2018-06-16T07:59:38.450Z,36.52
2018-06-16T08:02:07.848Z,36.27
2018-06-16T08:04:36.716Z,36.14
2018-06-16T08:07:05.548Z,36.06
2018-06-16T08:09:35.708Z,35.44
2018-06-16T08:12:04.924Z,36.50
2018-06-16T08:14:33.603Z,36.00
2018-06-16T08:17:02.541Z,35.98
2018-06-16T08:19:31.429Z,36.01
2018-06-16T08:22:00.182Z,36.57
2018-06-16T08:24:29.076Z,35.08
2018-06-16T08:26:57.838Z,34.21
2018-06-16T08:29:26.683Z,33.61
2018-06-16T08:31:55.664Z,35.14
2018-06-16T08:34:24.594Z,34.76
2018-06-16T08:36:53.340Z,35.28
2018-06-16T08:39:22.162Z,34.26
2018-06-16T08:41:50.951Z,34.53
2018-06-16T08:44:19.932Z,32.22
2018-06-16T08:46:48.641Z,33.36
2018-06-16T08:49:17.415Z,31.85
2018-06-16T08:51:46.325Z,31.83
2018-06-16T08:54:15.065Z,30.80
2018-06-16T08:56:43.824Z,33.15
2018-06-16T08:59:12.598Z,32.19
2018-06-16T09:01:41.477Z,32.22
2018-06-16T09:04:10.218Z,30.27
2018-06-16T09:06:38.965Z,30.55
2018-06-16T09:09:08.793Z,28.81
2018-06-16T09:11:37.611Z,30.22
2018-06-16T09:14:06.308Z,29.12
2018-06-16T09:16:35.365Z,30.12
2018-06-16T09:19:04.251Z,29.52
2018-06-16T09:21:33.054Z,29.22
2018-06-16T09:24:01.706Z,29.39
2018-06-16T09:26:30.671Z,29.28
2018-06-16T09:28:59.450Z,27.38
2018-06-16T09:31:28.214Z,28.32
2018-06-16T09:33:56.995Z,27.22
2018-06-16T09:36:25.693Z,28.73
2018-06-16T09:38:54.404Z,27.84
2018-06-16T09:41:25.267Z,28.44
2018-06-16T09:43:54.225Z,27.44
2018-06-16T09:46:22.883Z,26.70
2018-06-16T09:48:51.586Z,27.92
2018-06-16T09:51:20.434Z,27.12
2018-06-16T09:53:49.177Z,27.34
2018-06-16T09:56:17.922Z,27.26
2018-06-16T09:58:46.589Z,25.18
2018-06-16T10:01:15.809Z,28.22
2018-06-16T10:03:44.602Z,26.87
2018-06-16T10:06:13.489Z,26.55
2018-06-16T10:08:42.214Z,27.95
2018-06-16T10:11:11.288Z,26.30
2018-06-16T10:13:40.345Z,27.77
2018-06-16T10:16:09.166Z,25.99
2018-06-16T10:18:37.814Z,24.75
2018-06-16T10:21:06.469Z,26.14
2018-06-16T10:23:35.445Z,25.96
2018-06-16T10:26:04.324Z,28.34
2018-06-16T10:28:33.088Z,26.03
2018-06-16T10:31:01.784Z,27.43
2018-06-16T10:33:30.824Z,26.20
2018-06-16T10:35:59.631Z,25.41
2018-06-16T10:38:28.485Z,24.79
2018-06-16T10:40:57.283Z,26.86
2018-06-16T10:43:26.086Z,25.01
2018-06-16T10:45:54.866Z,25.67
2018-06-16T10:48:23.726Z,23.90
2018-06-16T10:50:52.360Z,27.18
2018-06-16T10:53:21.176Z,25.80
2018-06-16T10:55:49.823Z,25.42
2018-06-16T10:58:18.493Z,25.81
2018-06-16T11:00:47.199Z,23.92
2018-06-16T11:03:15.966Z,23.35
2018-06-16T11:05:44.925Z,23.98
2018-06-16T11:08:13.630Z,27.18
2018-06-16T11:10:42.470Z,23.67
2018-06-16T11:13:11.445Z,22.14
2018-06-16T11:15:40.204Z,23.20
2018-06-16T11:18:08.910Z,23.08
2018-06-16T11:20:37.806Z,23.03
2018-06-16T11:23:06.519Z,25.26
2018-06-16T11:25:35.745Z,25.71
2018-06-16T11:28:04.571Z,24.45
2018-06-16T11:30:33.486Z,25.18
2018-06-16T11:33:04.036Z,22.99
2018-06-16T11:35:33.292Z,25.92
2018-06-16T11:38:01.914Z,28.44
2018-06-16T11:40:30.599Z,22.29
2018-06-16T11:42:59.400Z,22.20
2018-06-16T11:45:31.449Z,23.99
2018-06-16T11:48:00.254Z,22.23
2018-06-16T11:50:29.483Z,25.17
2018-06-16T11:52:58.257Z,23.38
2018-06-16T11:55:27.194Z,25.15
2018-06-16T11:57:55.905Z,20.35
2018-06-16T12:00:24.840Z,21.87
2018-06-16T12:02:53.671Z,18.68
2018-06-16T12:08:19.338Z,16.37
2018-06-16T12:10:48.358Z,17.96
2018-06-16T12:13:16.991Z,17.23
2018-06-16T12:15:45.689Z,15.53
2018-06-16T12:18:14.503Z,14.76
2018-06-16T12:20:43.643Z,13.41
2018-06-16T12:23:12.534Z,14.33
2018-06-16T12:25:41.251Z,17.52
2018-06-16T12:28:10.157Z,16.99
2018-06-16T12:30:39.055Z,16.17
2018-06-16T12:33:07.866Z,16.40
2018-06-16T12:35:36.594Z,13.31
2018-06-16T12:38:05.512Z,15.84
2018-06-16T12:40:34.244Z,15.25
2018-06-16T12:43:02.962Z,12.11
2018-06-16T12:45:31.850Z,13.40
2018-06-16T12:48:00.670Z,13.92
2018-06-16T12:50:29.523Z,12.10
2018-06-16T12:52:58.452Z,12.24
2018-06-16T12:55:27.234Z,12.97
2018-06-16T12:57:56.199Z,12.20
2018-06-16T13:00:25.014Z,12.58
2018-06-16T13:02:54.857Z,12.80
2018-06-16T13:05:23.670Z,14.38
2018-06-16T13:07:52.670Z,15.11
2018-06-16T13:10:21.560Z,14.03
2018-06-16T13:12:50.244Z,12.37
2018-06-16T13:15:19.246Z,13.51
2018-06-16T13:17:48.103Z,14.81
2018-06-16T13:20:16.945Z,14.03
2018-06-16T13:22:45.846Z,14.03
2018-06-16T13:25:14.593Z,14.59
2018-06-16T13:27:43.375Z,12.72
2018-06-16T13:30:12.155Z,11.45
2018-06-16T13:32:40.907Z,12.03
2018-06-16T13:35:09.627Z,13.52
2018-06-16T13:37:38.394Z,14.80
2018-06-16T13:40:07.253Z,16.64
2018-06-16T13:42:36.079Z,19.09
2018-06-16T13:45:04.899Z,18.92
2018-06-16T13:47:33.805Z,17.89
2018-06-16T13:50:02.479Z,14.82
2018-06-16T13:52:31.358Z,15.51
2018-06-16T13:55:00.231Z,19.10
2018-06-16T13:57:28.992Z,20.77
2018-06-16T13:59:57.851Z,17.91
2018-06-16T14:02:26.762Z,17.69
2018-06-16T14:04:55.528Z,18.88
2018-06-16T14:07:24.263Z,17.12
2018-06-16T14:09:53.096Z,16.37
2018-06-16T14:12:21.755Z,17.37
2018-06-16T14:14:50.658Z,19.76
2018-06-16T14:17:19.260Z,18.07
2018-06-16T14:19:48.113Z,16.76
2018-06-16T14:22:16.897Z,16.26
2018-06-16T14:24:45.615Z,16.80
2018-06-16T14:27:14.436Z,20.60
2018-06-16T14:29:43.616Z,18.80
2018-06-16T14:32:12.561Z,19.13
2018-06-16T14:34:41.170Z,21.45
2018-06-16T14:37:10.091Z,19.69
2018-06-16T14:39:38.843Z,20.87
2018-06-16T14:42:07.568Z,18.07
2018-06-16T14:44:36.383Z,19.29
2018-06-16T14:47:05.102Z,20.92
2018-06-16T14:49:34.002Z,19.12
2018-06-16T14:52:02.741Z,21.51
2018-06-16T14:54:31.502Z,17.70
2018-06-16T14:57:00.319Z,18.28
2018-06-16T14:59:29.057Z,21.18
2018-06-16T15:01:57.886Z,21.73
2018-06-16T15:04:26.777Z,22.25
2018-06-16T15:06:55.390Z,21.04
2018-06-16T15:09:24.314Z,23.76
2018-06-16T15:11:53.269Z,19.79
2018-06-16T15:14:21.989Z,19.46
2018-06-16T15:16:50.593Z,19.66
2018-06-16T15:19:19.256Z,19.73
2018-06-16T15:21:47.936Z,18.38
2018-06-16T15:24:16.630Z,16.77
2018-06-16T15:26:45.335Z,14.86
2018-06-16T15:29:14.753Z,13.73
2018-06-16T15:31:43.518Z,14.05
2018-06-16T15:34:12.465Z,13.44
2018-06-16T15:36:41.207Z,11.38
2018-06-16T15:39:11.013Z,12.29
2018-06-16T15:41:39.766Z,11.48
2018-06-16T15:44:08.469Z,11.10
2018-06-16T15:46:37.256Z,11.25
2018-06-16T15:49:06.030Z,12.00
2018-06-16T15:51:35.021Z,10.70
2018-06-16T15:54:03.783Z,12.15
2018-06-16T15:56:32.674Z,13.01
2018-06-16T15:59:01.312Z,13.09
2018-06-16T16:01:30.143Z,12.06
2018-06-16T16:03:58.875Z,11.15
2018-06-16T16:06:27.706Z,13.05
2018-06-16T16:08:57.217Z,13.19
2018-06-16T16:11:26.152Z,11.29
2018-06-16T16:13:54.929Z,12.01
2018-06-16T16:16:23.772Z,12.31
2018-06-16T16:18:52.503Z,10.26
2018-06-16T16:21:21.263Z,11.57
2018-06-16T16:23:49.988Z,12.41
2018-06-16T16:26:18.727Z,11.81
2018-06-16T16:28:47.588Z,12.99
2018-06-16T16:31:16.435Z,12.79
2018-06-16T16:33:45.180Z,12.67
2018-06-16T16:36:14.154Z,11.72
2018-06-16T16:38:43.131Z,11.54
2018-06-16T16:41:11.881Z,12.71
2018-06-16T16:43:40.688Z,12.34
2018-06-16T16:46:09.457Z,13.16
2018-06-16T16:48:38.143Z,13.14
2018-06-16T16:51:07.014Z,12.50
2018-06-16T16:53:35.719Z,11.85
2018-06-16T16:56:04.482Z,11.84
2018-06-16T16:58:33.279Z,12.73
2018-06-16T17:01:02.007Z,13.24
2018-06-16T17:03:31.090Z,14.59
2018-06-16T17:05:59.858Z,14.25
2018-06-16T17:08:28.698Z,12.86
2018-06-16T17:10:57.581Z,13.18
2018-06-16T17:13:26.395Z,13.51
2018-06-16T17:15:55.239Z,14.21
2018-06-16T17:18:23.972Z,15.13
2018-06-16T17:20:52.757Z,16.91
2018-06-16T17:23:21.722Z,18.04
2018-06-16T17:25:50.648Z,19.59
2018-06-16T17:28:19.433Z,19.49
2018-06-16T17:30:48.216Z,17.76
2018-06-16T17:33:17.105Z,18.01
2018-06-16T17:35:45.922Z,21.75
2018-06-16T17:38:14.739Z,22.67
2018-06-16T17:40:43.631Z,23.26
2018-06-16T17:43:12.651Z,22.49
2018-06-16T17:45:41.383Z,24.83
2018-06-16T17:48:10.169Z,25.92
2018-06-16T17:50:38.893Z,27.49
2018-06-16T17:53:07.758Z,27.55
2018-06-16T17:55:36.889Z,29.13
2018-06-16T17:58:05.712Z,29.65
2018-06-16T18:00:34.412Z,31.65
2018-06-16T18:03:03.341Z,29.62
2018-06-16T18:05:32.237Z,28.80
2018-06-16T18:08:01.303Z,30.27
2018-06-16T18:10:30.191Z,30.49
2018-06-16T18:12:59.147Z,30.61
2018-06-16T18:15:27.931Z,31.98
2018-06-16T18:17:58.056Z,31.12
2018-06-16T18:20:26.850Z,31.82
2018-06-16T18:22:55.497Z,35.76
2018-06-16T18:25:24.433Z,33.71
2018-06-16T18:27:53.223Z,33.32
2018-06-16T18:30:23.190Z,32.85
2018-06-16T18:32:51.978Z,34.50
2018-06-16T18:35:20.847Z,36.45
2018-06-16T18:37:49.576Z,31.80
2018-06-16T18:40:18.391Z,34.52
2018-06-16T18:42:47.259Z,35.13
2018-06-16T18:45:16.157Z,35.14
2018-06-16T18:47:45.058Z,36.94
2018-06-16T18:50:13.958Z,36.11
2018-06-16T18:52:42.641Z,33.00
2018-06-16T18:55:11.387Z,35.83
2018-06-16T18:57:40.395Z,35.18
2018-06-16T19:00:09.227Z,38.33
2018-06-16T19:02:38.021Z,34.73
2018-06-16T19:05:06.915Z,38.75
2018-06-16T19:07:35.676Z,33.57
2018-06-16T19:10:04.607Z,32.79
2018-06-16T19:12:33.336Z,33.62
2018-06-16T19:15:02.138Z,33.89
2018-06-16T19:17:30.967Z,34.67
2018-06-16T19:19:59.706Z,35.32
2018-06-16T19:22:48.937Z,35.02
2018-06-16T19:25:22.029Z,36.38
2018-06-16T19:27:54.905Z,36.20
2018-06-16T19:31:48.311Z,36.12
2018-06-16T19:34:17.215Z,37.08
2018-06-16T19:36:46.009Z,37.44
2018-06-16T19:39:14.817Z,37.64
2018-06-16T19:41:43.498Z,38.30
2018-06-16T19:44:12.390Z,37.79
2018-06-16T19:46:41.047Z,38.42
2018-06-16T19:49:10.125Z,38.43
2018-06-16T19:51:46.296Z,38.97
2018-06-16T19:54:15.160Z,39.29
2018-06-16T19:56:44.031Z,39.70
2018-06-16T19:59:12.963Z,39.07
2018-06-16T20:01:41.802Z,40.39
2018-06-16T20:04:10.592Z,40.66
2018-06-16T20:06:39.568Z,40.07
2018-06-16T20:09:08.807Z,39.71
2018-06-16T20:11:39.030Z,40.32
2018-06-16T20:14:07.873Z,39.87
2018-06-16T20:16:37.346Z,40.25
2018-06-16T20:19:06.230Z,39.93
2018-06-16T20:21:34.889Z,40.28
2018-06-16T20:24:03.710Z,40.53
2018-06-16T20:26:32.595Z,41.12
2018-06-16T20:29:01.228Z,40.35
2018-06-16T20:31:30.029Z,39.92
2018-06-16T20:33:58.816Z,39.81
2018-06-16T20:36:27.597Z,40.96
2018-06-16T20:38:56.403Z,41.55
2018-06-16T20:41:25.130Z,42.10
2018-06-16T20:43:53.914Z,42.86
2018-06-16T20:46:22.733Z,42.81
2018-06-16T20:48:51.605Z,42.79
2018-06-16T20:51:20.520Z,42.60
2018-06-16T20:53:49.806Z,42.32
2018-06-16T20:56:18.595Z,43.44
2018-06-16T20:58:47.537Z,43.20
2018-06-16T21:01:16.345Z,41.57
2018-06-16T21:03:45.383Z,43.36
2018-06-16T21:06:14.188Z,41.72
2018-06-16T21:08:43.003Z,42.05
2018-06-16T21:11:11.859Z,42.69
2018-06-16T21:13:40.680Z,42.99
2018-06-16T21:16:09.560Z,43.53
2018-06-16T21:18:38.380Z,44.77
2018-06-16T21:21:07.181Z,44.39
2018-06-16T21:23:35.946Z,44.58
2018-06-16T21:26:04.799Z,45.72
2018-06-16T21:28:33.609Z,46.54
2018-06-16T21:31:02.371Z,47.18
2018-06-16T21:33:31.185Z,47.48
2018-06-16T21:35:59.908Z,47.80
2018-06-16T21:38:28.762Z,48.55
2018-06-16T21:40:57.786Z,48.03
2018-06-16T21:43:26.520Z,48.54
2018-06-16T21:45:55.343Z,49.16
2018-06-16T21:48:24.140Z,50.28
2018-06-16T21:50:52.795Z,50.00
2018-06-16T21:53:21.683Z,50.44
2018-06-16T21:55:50.480Z,50.70
2018-06-16T21:58:19.278Z,50.70
2018-06-16T22:00:48.474Z,51.28
2018-06-16T22:03:17.153Z,51.66
2018-06-16T22:05:46.011Z,51.84
2018-06-16T22:08:21.434Z,51.99
2018-06-16T22:10:50.260Z,51.33
2018-06-16T22:13:19.076Z,51.20
2018-06-16T22:15:47.891Z,52.30
2018-06-16T22:18:16.627Z,51.86
2018-06-16T22:20:45.414Z,52.09
2018-06-16T22:23:14.194Z,52.13
2018-06-16T22:25:42.901Z,52.35
2018-06-16T22:28:11.685Z,52.40
2018-06-16T22:30:40.441Z,53.17
2018-06-16T22:33:09.119Z,52.67
2018-06-16T22:35:38.085Z,52.41
2018-06-16T22:38:07.019Z,52.46
2018-06-16T22:40:35.792Z,52.81
2018-06-16T22:43:04.519Z,52.06
2018-06-16T22:45:33.299Z,52.58
2018-06-16T22:48:02.264Z,52.10
2018-06-16T22:50:32.795Z,52.30
2018-06-16T22:53:01.640Z,53.28
2018-06-16T22:55:30.333Z,52.14
2018-06-16T22:57:59.304Z,52.30
2018-06-16T23:00:29.414Z,52.29
2018-06-16T23:02:59.153Z,52.08
2018-06-16T23:05:28.022Z,51.91
2018-06-16T23:07:57.082Z,52.85
2018-06-16T23:10:26.005Z,52.09
2018-06-16T23:12:54.805Z,52.19
2018-06-16T23:15:23.577Z,51.67
2018-06-16T23:17:52.390Z,52.35
2018-06-16T23:20:21.085Z,53.07
2018-06-16T23:22:49.909Z,52.36
2018-06-16T23:25:18.760Z,51.61
2018-06-16T23:27:47.650Z,51.53
2018-06-16T23:30:16.398Z,51.83
2018-06-16T23:32:45.062Z,51.98
2018-06-16T23:35:15.027Z,51.29
2018-06-16T23:37:43.812Z,51.03
2018-06-16T23:40:12.640Z,51.15
2018-06-16T23:42:41.605Z,52.04
2018-06-16T23:45:10.359Z,51.83
2018-06-16T23:47:39.185Z,52.75
2018-06-16T23:50:08.191Z,52.93
2018-06-16T23:52:37.056Z,52.98
2018-06-16T23:55:05.894Z,54.43
2018-06-16T23:57:34.683Z,54.43
